Terminal Aerodrome Forecast
Issued by NWS Melbourne, FL

Home | Current Version | Previous Version | Text Only | Print | Product List | Glossary On
Versions: 1 2 3 4 5 6 7 8 9 10 11 12 13 14 15 16 17 18 19 20 21 22 23 24 25 26
000
FTUS42 KMLB 280534
TAFDAB
TAF
KDAB 280534Z 2806/2906 18003KT P6SM SCT020 BKN250
     FM280800 19003KT P6SM FEW010 BKN020 BKN250
     FM281500 20006KT P6SM VCSH SCT020 BKN030 BKN080
     FM281700 22008KT P6SM VCTS SCT035CB BKN060
     FM290000 22005KT P6SM SCT020 BKN080 BKN250=

USA.gov is the U.S. government's official web portal to all federal, state and local government web resources and services.